Bugt, China
Current Conditions -  °F | °C
As of 2:00 AM on Tuesday 21 Oct 2014 (Local Time) from ZYTX Reporting Station
Clear Clear  
Wind Chill:   Ceiling: Unl
Heat Index:   Visibility: 4mi
Dew Point: -13°   Wind: 13mph
Humidity: 26%   Direction: 10°N
Pressure: 30.3"   Gusts: NA
Location:  42.33°N, 120.7°E
Report Text: ZYTX 201800Z 01006MPS 7000 NSC 05/M13 Q1026 NOSIG
Loading
Personal Weather Stations






























Interactive Weather Map
Tropical Storm Tracking
New forecast layout! Learn more

10-Day Weather Forecast

Advertisements
Track Severe Weather on mobile